Nikiski, AK (99635)

6:59 AM AKDT on July 29, 2014 (GMT -0800)
Kenai (KAKKENAI2) Elev 95 ft | 60.58 °N, 151.31 °W | Change Station

Current weather conditions updated 4 seconds ago

Rain
Rain
51.1 °F
Feels Like 51.1 °F
N
0.0
Wind Variable Wind from ENE
Gusts 0.0 mph

Today is forecast to be Warmer than yesterday.

Today
High -- | Low -- °F
--% Chance of Precip.
Yesterday
High -- | Low -- °F
Precip. -- in
5:34 AM 10:47 PM
Waxing Crescent, 6% visible
Pressure 30.00 in
Visibility 10.0 miles
Clouds Clear
Dew Point 50 °F
Humidity 97%
Rainfall 0.13 in
Snow Depth Not available.
UV 0.0 out of 12
Pollen Not available.
Air Quality Not available.
Flu Activity Not available.
METAR PAEN 291453Z 05003KT 10SM CLR 10/10 A3000 RMK AO2 SLP159 T01000100 52003 $

More Conditions Fewer Conditions

Pressure 30.00 in
Visibility 10.0 miles
Clouds Clear
Dew Point 50 °F
Humidity 97%
Rainfall 0.13 in
Snow Depth Not available.
UV 0.0 out of 12
Pollen Not available.
Air Quality Not available.
Flu Activity Not available.
METAR PAEN 291453Z 05003KT 10SM CLR 10/10 A3000 RMK AO2 SLP159 T01000100 52003 $

More Conditions Fewer Conditions

10-Day Weather Forecast

Almanac

Astronomy

Jul. 29, 2014 Rise Set
Actual Time 5:34 AM AKDT 10:47 PM AKDT
Civil Twilight 4:28 AM AKDT 11:52 PM AKDT
Nautical Twilight 2:44 AM AKDT 1:39 AM AKDT
Astronomical Twilight Sun does not rise Sun does not rise
Moon 9:24 AM AKDT 10:53 PM AKDT
Length of Visible Light 19h 24m
Length of Day
17h 12m
Tomorrow will be 4m 58s shorter.
Waxing Crescent, 6% of the Moon is Illuminated
Today
Waxing Crescent
Aug 3
First Quarter
Aug 10
Full
Aug 17
Last Quarter
Aug 25
New

Today's Extremes

State Highs State Lows

Community

WunderPhotos

Upload Photos

1,738,749 photos uploaded!

Nearby

Snow Depth

Station Depth Elevation
Cooper Lake 25 in 1200 ft
Summit Creek 0 in 1400 ft
Point Mackenzie 1 in 200 ft
MF Bradley River 213 in 2300 ft
Indian Pass 1 in 2300 ft

Earthquake Activity

City Distance Mag. Time & Date
No recent earthquake activity has been reported nearby.
Minimum magnitude displayed is 2.5.

Coastal Water Temperatures

Place Temperature
No Stations Reporting

Nearby Weather Stations

Station Location Temp. Dew Point Humidity Wind Precip. Elev Updated Type
Kenai, Kenai, AK 51.1 °F 50 °F 97% ENE  at  0.0 mph 0.01 in / hr 95 ft 6:59 AM AKDT Rapid Fire
RAWS SWANSON RIVER AK, Sterling, AK 51 °F 51 °F 99% NNE  at  3 mph 0.00 in / hr 215 ft 5:50 AM AKDT MADIS
W. Corral PWS, Soldotna, AK 51.6 °F 51 °F 99% North  at  2.2 mph 0.00 in / hr 110 ft 6:59 AM AKDT Rapid Fire
RAWS SOLDOTNA AKKKS AK, Soldotna, AK 51 °F 50 °F 96% NE  at  2 mph 0.00 in / hr 154 ft 6:27 AM AKDT MADIS

Show More Stations Show Fewer Stations